createdAt,value
2022-10-17T00:04:20.275Z,15.98
2022-10-17T00:09:23.271Z,16.48
2022-10-17T00:14:26.200Z,18.77
2022-10-17T00:19:29.102Z,19.24
2022-10-17T00:24:32.043Z,17.73
2022-10-17T00:29:34.991Z,16.79
2022-10-17T00:34:37.905Z,16.17
2022-10-17T00:39:40.800Z,15.69
2022-10-17T00:44:47.095Z,16.23
2022-10-17T00:49:50.533Z,18.63
2022-10-17T00:55:29.578Z,19.70
2022-10-17T01:00:32.787Z,18.36
2022-10-17T01:05:37.113Z,17.24
2022-10-17T01:11:02.627Z,16.57
2022-10-17T01:16:52.310Z,16.00
2022-10-17T01:22:04.077Z,16.81
2022-10-17T01:27:35.307Z,19.06
2022-10-17T01:32:57.863Z,19.57
2022-10-17T01:38:14.786Z,17.99
2022-10-17T01:43:30.126Z,17.01
2022-10-17T01:48:38.768Z,16.39
2022-10-17T01:54:06.919Z,16.81
2022-10-17T01:59:17.443Z,19.18
2022-10-17T02:04:20.609Z,19.57
2022-10-17T02:09:26.524Z,18.02
2022-10-17T02:14:45.060Z,17.01
2022-10-17T02:20:20.033Z,16.35
2022-10-17T02:26:04.903Z,16.93
2022-10-17T02:31:22.736Z,19.31
2022-10-17T02:36:46.123Z,19.18
2022-10-17T02:41:52.540Z,17.58
2022-10-17T02:47:16.147Z,16.69
2022-10-17T02:52:31.253Z,16.04
2022-10-17T02:57:41.061Z,15.51
2022-10-17T03:02:48.509Z,16.11
2022-10-17T03:07:52.372Z,18.41
2022-10-17T03:12:55.982Z,18.91
2022-10-17T03:17:58.886Z,17.37
2022-10-17T03:23:02.101Z,16.39
2022-10-17T03:28:05.688Z,15.72
2022-10-17T03:33:08.591Z,15.21
2022-10-17T03:38:11.463Z,15.78
2022-10-17T03:43:14.353Z,18.10
2022-10-17T03:48:17.229Z,18.89
2022-10-17T03:53:20.177Z,17.42
2022-10-17T03:58:23.305Z,16.33
2022-10-17T04:03:26.230Z,15.65
2022-10-17T04:08:29.981Z,15.13
2022-10-17T04:13:33.981Z,15.57
2022-10-17T04:18:36.924Z,17.92
2022-10-17T04:23:40.244Z,18.47
2022-10-17T04:28:43.138Z,16.98
2022-10-17T04:33:50.864Z,16.03
2022-10-17T04:38:54.013Z,15.38
2022-10-17T04:43:56.897Z,14.86
2022-10-17T04:48:59.797Z,15.38
2022-10-17T04:54:02.722Z,17.68
2022-10-17T04:59:05.688Z,18.21
2022-10-17T05:04:08.596Z,16.70
2022-10-17T05:09:11.502Z,15.70
2022-10-17T05:14:15.575Z,15.06
2022-10-17T05:19:18.667Z,14.55
2022-10-17T05:24:21.847Z,15.10
2022-10-17T05:29:24.754Z,17.45
2022-10-17T05:34:27.716Z,18.71
2022-10-17T05:39:30.633Z,18.47
2022-10-17T05:44:33.702Z,16.87
2022-10-17T05:49:52.626Z,15.92
2022-10-17T05:54:55.657Z,15.26
2022-10-17T05:59:58.566Z,15.77
2022-10-17T06:05:01.512Z,18.06
2022-10-17T06:10:04.981Z,19.24
2022-10-17T06:15:08.549Z,18.35
2022-10-17T07:29:11.749Z,19.38
2022-10-17T07:34:14.792Z,20.11
2022-10-17T07:39:17.812Z,20.81
2022-10-17T07:44:21.060Z,20.78
2022-10-17T07:49:24.034Z,19.25
2022-10-17T07:54:26.935Z,18.23
2022-10-17T07:59:29.843Z,17.61
2022-10-17T08:04:34.777Z,18.12
2022-10-17T08:09:37.804Z,20.22
2022-10-17T08:14:42.538Z,21.24
2022-10-17T08:19:45.431Z,21.26
2022-10-17T08:24:48.343Z,19.78
2022-10-17T08:29:54.825Z,18.83
2022-10-17T08:34:57.748Z,18.16
2022-10-17T08:40:00.681Z,17.79
2022-10-17T08:45:17.057Z,19.54
2022-10-17T08:50:36.833Z,21.23
2022-10-17T08:55:51.680Z,21.36
2022-10-17T09:01:24.233Z,19.92
2022-10-17T09:06:45.211Z,19.02
2022-10-17T09:12:24.783Z,19.81
2022-10-17T09:17:54.944Z,21.80
2022-10-17T09:23:11.865Z,21.06
2022-10-17T09:28:31.300Z,19.86
2022-10-17T09:33:54.234Z,19.20
2022-10-17T09:39:02.002Z,18.75
2022-10-17T09:44:23.052Z,19.43
2022-10-17T09:49:39.473Z,21.67
2022-10-17T09:55:15.446Z,22.19
2022-10-17T10:00:28.038Z,20.73
2022-10-17T10:05:31.196Z,19.94
2022-10-17T10:10:34.278Z,19.51
2022-10-17T10:15:46.602Z,19.25
2022-10-17T10:21:04.467Z,19.23
2022-10-17T10:26:25.933Z,21.41
2022-10-17T10:31:37.083Z,21.56
2022-10-17T10:36:52.918Z,20.57
2022-10-17T10:41:56.007Z,20.05
2022-10-17T10:47:22.740Z,19.76
2022-10-17T10:53:07.930Z,20.21
2022-10-17T10:58:48.670Z,21.84
2022-10-17T11:04:49.212Z,20.86
2022-10-17T11:10:47.738Z,20.27
2022-10-17T11:16:18.070Z,19.97
2022-10-17T11:21:48.604Z,19.78
2022-10-17T11:27:06.645Z,19.90
2022-10-17T11:32:25.089Z,22.12
2022-10-17T11:37:34.674Z,21.96
2022-10-17T11:43:20.263Z,21.11
2022-10-17T11:48:39.147Z,20.64
2022-10-17T11:53:51.219Z,20.37
2022-10-17T12:58:28.476Z,19.83
2022-10-17T13:03:44.348Z,19.86
2022-10-17T13:09:03.577Z,21.35
2022-10-17T13:14:14.757Z,23.45
2022-10-17T13:19:25.462Z,22.82
2022-10-17T13:24:33.049Z,21.82
2022-10-17T13:29:44.475Z,21.30
2022-10-17T13:35:04.392Z,20.95
2022-10-17T13:46:25.383Z,20.43
2022-10-17T13:51:28.703Z,20.21
2022-10-17T13:56:32.401Z,20.07
2022-10-17T14:01:38.325Z,19.95
2022-10-17T14:06:51.134Z,19.86
2022-10-17T14:12:08.638Z,19.77
2022-10-17T14:17:30.897Z,19.67
2022-10-17T14:22:38.562Z,19.57
2022-10-17T14:28:14.137Z,20.45
2022-10-17T14:33:26.341Z,22.93
2022-10-17T14:38:30.621Z,23.37
2022-10-17T14:43:33.556Z,22.06
2022-10-17T14:48:36.656Z,21.27
2022-10-17T14:54:21.562Z,20.74
2022-10-17T14:59:52.194Z,20.27
2022-10-17T15:04:48.906Z,19.87
2022-10-17T15:09:54.131Z,19.57
2022-10-17T15:14:57.354Z,19.28
2022-10-17T15:20:00.726Z,19.05
2022-10-17T15:25:04.017Z,18.85
2022-10-17T15:30:29.227Z,19.72
2022-10-17T15:35:32.248Z,22.14
2022-10-17T15:40:35.186Z,22.55
2022-10-17T15:45:38.139Z,21.21
2022-10-17T15:50:41.049Z,20.32
2022-10-17T15:55:44.030Z,19.74
2022-10-17T16:00:48.007Z,19.29
2022-10-17T16:05:50.940Z,18.93
2022-10-17T16:10:54.077Z,18.59
2022-10-17T16:15:57.922Z,18.28
2022-10-17T16:21:04.137Z,19.09
2022-10-17T16:26:08.278Z,21.36
2022-10-17T16:31:24.017Z,22.49
2022-10-17T16:36:27.001Z,21.59
2022-10-17T16:41:33.971Z,20.38
2022-10-17T16:46:38.257Z,19.64
2022-10-17T16:51:41.166Z,19.11
2022-10-17T16:56:44.107Z,18.67
2022-10-17T17:01:47.003Z,18.26
2022-10-17T17:06:50.000Z,17.93
2022-10-17T17:11:52.917Z,18.63
2022-10-17T17:16:55.869Z,20.97
2022-10-17T17:21:58.809Z,21.99
2022-10-17T17:27:01.910Z,20.85
2022-10-17T17:32:05.092Z,19.63
2022-10-17T17:37:08.035Z,18.89
2022-10-17T17:42:10.965Z,18.33
2022-10-17T17:47:13.881Z,17.86
2022-10-17T17:52:16.939Z,18.42
2022-10-17T17:57:19.840Z,20.72
2022-10-17T18:02:22.758Z,21.76
2022-10-17T18:07:25.702Z,20.64
2022-10-17T18:12:30.455Z,19.40
2022-10-17T18:17:34.644Z,18.64
2022-10-17T18:22:37.544Z,18.04
2022-10-17T18:27:40.447Z,17.58
2022-10-17T18:32:43.405Z,18.15
2022-10-17T18:37:46.409Z,20.41
2022-10-17T18:42:49.330Z,21.17
2022-10-17T18:47:54.887Z,19.81
2022-10-17T18:52:57.780Z,18.69
2022-10-17T18:58:00.783Z,17.93
2022-10-17T19:03:05.020Z,17.40
2022-10-17T19:08:07.973Z,17.89
2022-10-17T19:13:11.934Z,20.11
2022-10-17T19:18:14.897Z,20.66
2022-10-17T19:23:17.791Z,19.23
2022-10-17T19:28:20.710Z,18.21
2022-10-17T19:33:23.992Z,17.54
2022-10-17T19:38:26.953Z,17.05
2022-10-17T19:43:29.858Z,16.59
2022-10-17T19:48:35.535Z,17.21
2022-10-17T19:53:39.010Z,19.57
2022-10-17T19:58:45.641Z,20.75
2022-10-17T20:03:49.515Z,19.81
2022-10-17T20:08:53.601Z,18.46
2022-10-17T20:13:57.554Z,17.62
2022-10-17T20:19:12.788Z,17.01
2022-10-17T20:24:17.188Z,17.43
2022-10-17T20:29:21.543Z,19.63
2022-10-17T20:34:25.091Z,20.42
2022-10-17T20:39:28.553Z,19.09
2022-10-17T20:44:31.582Z,17.93
2022-10-17T20:49:34.603Z,17.22
2022-10-17T20:54:37.768Z,16.67
2022-10-17T20:59:40.793Z,17.07
2022-10-17T21:04:46.767Z,19.20
2022-10-17T21:09:50.036Z,20.32
2022-10-17T21:14:52.956Z,19.98
2022-10-17T21:19:56.125Z,18.49
2022-10-17T21:24:59.056Z,17.58
2022-10-17T21:30:02.539Z,16.95
2022-10-17T21:35:06.316Z,16.40
2022-10-17T21:40:10.278Z,16.90
2022-10-17T21:45:15.699Z,19.09
2022-10-17T21:50:19.065Z,20.21
2022-10-17T21:55:21.937Z,19.99
2022-10-17T22:00:24.942Z,18.37
2022-10-17T22:05:27.905Z,17.38
2022-10-17T22:10:30.946Z,16.74
2022-10-17T22:15:33.937Z,16.23
2022-10-17T22:20:36.963Z,16.78
2022-10-17T22:25:39.863Z,19.03
2022-10-17T22:30:42.794Z,20.12
2022-10-17T22:35:46.590Z,19.71
2022-10-17T22:40:49.499Z,18.04
2022-10-17T22:45:58.296Z,17.05
2022-10-17T22:51:02.558Z,16.38
2022-10-17T22:56:10.818Z,15.86
2022-10-17T23:01:18.068Z,16.44
2022-10-17T23:06:21.650Z,18.75
2022-10-17T23:11:24.708Z,19.87
2022-10-17T23:16:27.670Z,19.13
2022-10-17T23:21:30.571Z,17.57
2022-10-17T23:26:33.508Z,16.68
2022-10-17T23:31:36.472Z,16.05
2022-10-17T23:36:39.508Z,16.47
2022-10-17T23:41:42.437Z,18.72
2022-10-17T23:46:45.372Z,19.47
2022-10-17T23:51:48.283Z,18.03
2022-10-17T23:56:51.198Z,16.91
